Acme, WA (98220)

8:35 PM PDT on March 22, 2017 (GMT -0700)
Sudden Valley | | Change Station

Elev 663 ft 48.71 °N, 122.32 °W | Updated 1 second ago

Rain
Rain
44.1 °F
Feels Like 44 °F
N
0.0
Wind Variable Wind from ESE
Gusts 0.0 mph

Today
High -- | Low -- °F
--% Chance of Precip.
Yesterday
High -- | Low -- °F
Precip. -- in
Pressure 29.96 in
Visibility 10.0 miles
Clouds Overcast 11000 ft
Windchill 44 °F
Dew Point 26 °F
Humidity 49%
Rainfall 0.07 in
Snow Depth Not available.
7:06 AM 7:25 PM
Waning Crescent, 27% visible
METAR KBLI 230253Z VRB05KT 10SM OVC110 09/03 A2994 RMK AO2 SLP145 60002 T00890033 53040
Pressure 29.96 in
Visibility 10.0 miles
Clouds Overcast 11000 ft
Windchill 44 °F
Dew Point 26 °F
Humidity 49%
Rainfall 0.07 in
Snow Depth Not available.
7:06 AM 7:25 PM
Waning Crescent, 27% visible
METAR KBLI 230253Z VRB05KT 10SM OVC110 09/03 A2994 RMK AO2 SLP145 60002 T00890033 53040

Get Severe Weather Alerts

Thanks for signing up!

Be on the lookout for a verification email in your inbox.

You'll start receiving the daily forecast at 8 AM.

×

10-Day Weather Forecast

Almanac

Astronomy

Mar. 22, 2017 Rise Set
Actual Time
Civil Twilight
Nautical Twilight
Astronomical Twilight
Moon
Length of Visible Light
Length of Day
Tomorrow will be .
, % of the Moon is Illuminated

Today's Extremes

State Highs State Lows

Community

WunderPhotos

Upload Photos

1,962,540 photos uploaded!

WunderBlog® & News

Nearby

Air Quality

  Air Quality AQ Index Pollutant
Not available.

Snow Depth

Station Depth Elevation

Earthquake Activity

City Distance Mag. Time & Date
Minimum magnitude displayed is 2.5.

Earthquake Activity

City Distance Mag. Time & Date
Minimum magnitude displayed is 2.5.

Coastal Water Temperatures

Place Temperature

Stations

Nearby Weather Stations

Station Location Temp. Windchill Dew Point Humidity Wind Precip. Elev Updated Type
                   

Watches & Warnings

There are currently no watches in effect.